createdAt,value
2018-03-08T00:00:42.093Z,6.10
2018-03-08T00:03:11.330Z,6.00
2018-03-08T00:05:38.852Z,5.90
2018-03-08T00:08:07.133Z,5.90
2018-03-08T00:10:35.437Z,5.90
2018-03-08T00:13:02.966Z,5.90
2018-03-08T00:15:30.547Z,5.80
2018-03-08T00:17:58.067Z,5.80
2018-03-08T00:20:26.430Z,5.80
2018-03-08T00:22:53.953Z,5.70
2018-03-08T00:25:22.435Z,5.80
2018-03-08T00:27:49.980Z,5.80
2018-03-08T00:30:17.505Z,5.90
2018-03-08T00:32:45.821Z,5.90
2018-03-08T00:35:13.347Z,5.90
2018-03-08T00:37:40.898Z,5.90
2018-03-08T00:40:08.411Z,6.00
2018-03-08T00:42:35.939Z,6.00
2018-03-08T00:45:03.490Z,6.00
2018-03-08T00:47:31.003Z,5.90
2018-03-08T00:49:58.594Z,5.90
2018-03-08T00:52:26.106Z,6.00
2018-03-08T00:54:53.655Z,6.00
2018-03-08T00:57:22.142Z,6.00
2018-03-08T00:59:49.667Z,5.90
2018-03-08T01:02:17.209Z,6.00
2018-03-08T01:04:44.729Z,6.00
2018-03-08T01:07:12.267Z,6.00
2018-03-08T01:09:39.789Z,6.00
2018-03-08T01:12:07.385Z,6.00
2018-03-08T01:14:34.898Z,6.00
2018-03-08T01:17:02.430Z,5.90
2018-03-08T01:19:29.994Z,5.90
2018-03-08T01:21:57.522Z,5.90
2018-03-08T01:24:25.349Z,5.90
2018-03-08T01:26:53.643Z,5.90
2018-03-08T01:29:21.200Z,5.90
2018-03-08T01:31:48.726Z,5.90
2018-03-08T01:34:16.238Z,5.80
2018-03-08T01:36:43.782Z,5.80
2018-03-08T01:39:12.267Z,5.80
2018-03-08T01:41:39.819Z,5.80
2018-03-08T01:44:07.360Z,5.70
2018-03-08T01:46:35.686Z,5.70
2018-03-08T01:49:03.213Z,5.70
2018-03-08T01:51:30.734Z,5.70
2018-03-08T01:53:58.290Z,5.60
2018-03-08T01:56:25.817Z,5.60
2018-03-08T01:58:53.354Z,5.60
2018-03-08T02:01:20.882Z,5.60
2018-03-08T02:03:49.190Z,5.50
2018-03-08T02:06:16.710Z,5.50
2018-03-08T02:08:44.239Z,5.50
2018-03-08T02:11:11.792Z,5.50
2018-03-08T02:13:39.312Z,5.40
2018-03-08T02:16:07.793Z,5.40
2018-03-08T02:18:35.306Z,5.40
2018-03-08T02:21:02.843Z,5.40
2018-03-08T02:23:30.373Z,5.40
2018-03-08T02:25:57.899Z,5.40
2018-03-08T02:28:25.443Z,5.40
2018-03-08T02:30:52.969Z,5.50
2018-03-08T02:33:20.523Z,5.50
2018-03-08T02:35:49.035Z,5.40
2018-03-08T02:38:16.584Z,5.40
2018-03-08T02:40:44.119Z,5.50
2018-03-08T02:43:11.644Z,5.50
2018-03-08T02:45:41.898Z,5.30
2018-03-08T02:48:09.425Z,5.30
2018-03-08T02:50:36.982Z,5.30
2018-03-08T02:53:04.563Z,5.20
2018-03-08T02:55:32.113Z,5.10
2018-03-08T02:57:59.637Z,5.00
2018-03-08T03:00:27.171Z,4.90
2018-03-08T03:02:54.715Z,4.90
2018-03-08T03:05:22.233Z,4.70
2018-03-08T03:07:49.780Z,4.50
2018-03-08T03:10:17.294Z,4.40
2018-03-08T03:12:45.197Z,4.30
2018-03-08T03:15:13.674Z,4.30
2018-03-08T03:17:41.245Z,4.40
2018-03-08T03:20:08.768Z,4.50
2018-03-08T03:22:36.291Z,4.50
2018-03-08T03:25:03.874Z,4.60
2018-03-08T03:27:31.400Z,4.70
2018-03-08T03:29:58.960Z,4.80
2018-03-08T03:32:26.487Z,4.80
2018-03-08T03:34:54.002Z,4.90
2018-03-08T03:37:21.557Z,4.90
2018-03-08T03:39:49.065Z,4.90
2018-03-08T03:42:16.626Z,4.90
2018-03-08T03:44:44.954Z,4.90
2018-03-08T03:47:12.499Z,5.10
2018-03-08T03:49:40.014Z,5.30
2018-03-08T03:52:08.302Z,5.30
2018-03-08T03:54:35.845Z,5.30
2018-03-08T03:57:03.358Z,5.20
2018-03-08T03:59:30.898Z,5.10
2018-03-08T04:02:00.174Z,5.00
2018-03-08T04:04:27.658Z,5.00
2018-03-08T04:06:55.206Z,5.00
2018-03-08T04:09:23.489Z,4.90
2018-03-08T04:11:52.765Z,4.80
2018-03-08T04:14:20.287Z,4.70
2018-03-08T04:16:47.830Z,4.80
2018-03-08T04:19:15.394Z,4.60
2018-03-08T04:21:42.934Z,4.80
2018-03-08T04:24:10.479Z,4.90
2018-03-08T04:26:38.000Z,5.00
2018-03-08T04:29:05.554Z,5.00
2018-03-08T04:31:33.083Z,5.10
2018-03-08T04:34:00.656Z,5.10
2018-03-08T04:36:28.176Z,5.00
2018-03-08T04:38:57.406Z,5.30
2018-03-08T04:41:24.955Z,5.20
2018-03-08T04:43:52.480Z,5.30
2018-03-08T04:46:20.787Z,5.30
2018-03-08T04:48:48.314Z,5.30
2018-03-08T04:51:15.862Z,5.30
2018-03-08T04:53:43.386Z,5.40
2018-03-08T04:56:10.904Z,5.60
2018-03-08T04:58:39.218Z,5.50
2018-03-08T05:01:06.772Z,5.50
2018-03-08T05:03:34.306Z,5.60
2018-03-08T05:06:01.821Z,5.70
2018-03-08T05:08:29.373Z,5.80
2018-03-08T05:10:57.862Z,5.80
2018-03-08T05:13:25.382Z,5.60
2018-03-08T05:15:52.936Z,5.50
2018-03-08T05:18:20.451Z,5.40
2018-03-08T05:20:48.003Z,5.30
2018-03-08T05:23:15.530Z,5.10
2018-03-08T05:25:43.249Z,5.10
2018-03-08T05:28:11.546Z,4.90
2018-03-08T05:30:39.281Z,4.90
2018-03-08T05:33:06.824Z,4.90
2018-03-08T05:35:34.339Z,4.80
2018-03-08T05:38:01.886Z,4.70
2018-03-08T05:40:29.409Z,4.60
2018-03-08T05:42:57.721Z,4.60
2018-03-08T05:45:25.245Z,4.60
2018-03-08T05:47:54.441Z,4.60
2018-03-08T05:50:22.761Z,4.60
2018-03-08T05:52:50.286Z,4.60
2018-03-08T05:55:17.835Z,4.70
2018-03-08T05:57:45.369Z,4.60
2018-03-08T06:00:14.890Z,4.60
2018-03-08T06:02:42.410Z,4.70
2018-03-08T06:05:09.930Z,4.70
2018-03-08T06:07:37.479Z,4.70
2018-03-08T06:10:05.960Z,4.90
2018-03-08T06:12:34.271Z,5.20
2018-03-08T06:15:01.804Z,5.20
2018-03-08T06:17:29.352Z,5.20
2018-03-08T06:19:56.878Z,5.20
2018-03-08T06:22:25.359Z,5.20
2018-03-08T06:24:52.908Z,5.30
2018-03-08T06:27:20.426Z,5.40
2018-03-08T06:29:47.972Z,5.40
2018-03-08T06:32:16.256Z,5.70
2018-03-08T06:34:43.810Z,5.60
2018-03-08T06:37:11.333Z,5.90
2018-03-08T06:39:39.814Z,6.00
2018-03-08T06:42:07.367Z,6.10
2018-03-08T06:44:34.895Z,6.20
2018-03-08T06:47:02.449Z,6.20
2018-03-08T06:49:29.972Z,6.20
2018-03-08T06:51:58.335Z,6.10
2018-03-08T06:54:25.841Z,6.10
2018-03-08T06:56:53.375Z,6.10
2018-03-08T06:59:21.677Z,5.50
2018-03-08T07:01:49.195Z,5.50
2018-03-08T07:04:29.101Z,5.60
2018-03-08T07:07:00.438Z,5.60
2018-03-08T07:09:28.033Z,5.20
2018-03-08T07:11:55.553Z,5.50
2018-03-08T07:14:23.074Z,5.80
2018-03-08T07:16:51.394Z,6.10
2018-03-08T07:19:18.923Z,6.10
2018-03-08T07:21:46.477Z,6.00
2018-03-08T07:24:14.769Z,6.40
2018-03-08T07:26:42.345Z,6.40
2018-03-08T07:29:09.874Z,6.60
2018-03-08T07:31:38.156Z,6.40
2018-03-08T07:34:05.701Z,6.40
2018-03-08T07:36:33.983Z,7.00
2018-03-08T07:39:01.538Z,6.90
2018-03-08T07:41:29.819Z,7.40
2018-03-08T07:43:58.148Z,7.50
2018-03-08T07:46:25.672Z,7.50
2018-03-08T07:48:53.190Z,7.60
2018-03-08T07:51:21.510Z,7.80
2018-03-08T07:53:49.030Z,7.80
2018-03-08T07:56:16.579Z,8.00
2018-03-08T07:58:44.126Z,7.90
2018-03-08T08:01:12.506Z,8.10
2018-03-08T08:03:40.035Z,8.10
2018-03-08T08:06:19.273Z,8.10
2018-03-08T08:08:58.761Z,8.20
2018-03-08T08:11:26.329Z,8.40
2018-03-08T08:13:53.845Z,8.60
2018-03-08T08:16:21.372Z,8.70
2018-03-08T08:18:48.910Z,8.80
2018-03-08T08:21:16.420Z,8.70
2018-03-08T08:23:45.899Z,8.90
2018-03-08T08:26:14.390Z,8.90
2018-03-08T08:28:41.933Z,8.90
2018-03-08T08:31:09.455Z,8.90
2018-03-08T08:33:36.977Z,8.90
2018-03-08T08:36:04.532Z,8.90
2018-03-08T08:38:32.064Z,9.00
2018-03-08T08:40:59.925Z,9.00
2018-03-08T08:43:27.438Z,9.00
2018-03-08T08:45:54.986Z,8.80
2018-03-08T08:48:22.836Z,9.00
2018-03-08T08:50:50.994Z,9.20
2018-03-08T08:53:18.942Z,9.20
2018-03-08T08:55:47.016Z,9.10
2018-03-08T08:58:15.406Z,9.00
2018-03-08T09:00:42.938Z,9.30
2018-03-08T09:03:11.251Z,9.60
2018-03-08T09:05:39.739Z,9.60
2018-03-08T09:08:07.258Z,9.40
2018-03-08T09:10:34.813Z,9.20
2018-03-08T09:13:02.338Z,9.10
2018-03-08T09:15:29.898Z,9.20
2018-03-08T09:17:57.419Z,9.50
2018-03-08T09:20:24.979Z,9.60
2018-03-08T09:22:52.510Z,9.80
2018-03-08T09:25:20.135Z,9.80
2018-03-08T09:27:47.698Z,10.00
2018-03-08T09:30:15.312Z,10.20
2018-03-08T09:32:42.862Z,10.20
2018-03-08T09:35:10.400Z,10.20
2018-03-08T09:37:38.679Z,10.30
2018-03-08T09:40:06.294Z,10.30
2018-03-08T09:42:33.819Z,10.40
2018-03-08T09:45:03.334Z,10.40
2018-03-08T09:47:30.866Z,10.20
2018-03-08T09:49:58.386Z,10.30
2018-03-08T09:52:25.935Z,10.40
2018-03-08T09:54:53.475Z,10.30
2018-03-08T09:57:21.035Z,10.10
2018-03-08T09:59:48.557Z,9.90
2018-03-08T10:02:18.066Z,10.00
2018-03-08T10:04:45.610Z,10.30
2018-03-08T10:07:14.101Z,10.40
2018-03-08T10:09:42.434Z,10.60
2018-03-08T10:12:10.906Z,10.60
2018-03-08T10:14:39.447Z,10.60
2018-03-08T10:17:07.692Z,10.70
2018-03-08T10:19:35.241Z,10.90
2018-03-08T10:22:03.530Z,11.20
2018-03-08T10:24:31.834Z,10.90
2018-03-08T10:27:00.397Z,10.90
2018-03-08T10:29:28.678Z,11.30
2018-03-08T10:31:57.003Z,11.40
2018-03-08T10:34:24.530Z,11.30
2018-03-08T10:36:52.086Z,11.70
2018-03-08T10:41:47.208Z,11.50
2018-03-08T10:44:14.783Z,11.50
2018-03-08T10:46:42.372Z,11.50
2018-03-08T10:49:09.936Z,11.50
2018-03-08T10:51:37.477Z,11.70
2018-03-08T10:54:06.992Z,11.70
2018-03-08T10:56:35.298Z,11.30
2018-03-08T10:59:02.830Z,11.20
2018-03-08T11:01:33.343Z,11.30
2018-03-08T11:04:06.567Z,11.40
2018-03-08T11:06:36.970Z,11.50
2018-03-08T11:09:05.456Z,11.40
2018-03-08T11:11:32.974Z,11.30
2018-03-08T11:14:00.494Z,11.30
2018-03-08T11:16:28.076Z,11.40
2018-03-08T11:18:55.602Z,11.50
2018-03-08T11:21:23.153Z,11.60
2018-03-08T11:23:50.686Z,11.80
2018-03-08T11:26:18.260Z,12.00
2018-03-08T11:28:45.811Z,12.20
2018-03-08T11:31:13.422Z,12.00
2018-03-08T11:33:40.918Z,12.30
2018-03-08T11:36:08.458Z,12.60
2018-03-08T11:38:36.033Z,12.10
2018-03-08T11:41:03.594Z,12.10
2018-03-08T11:43:31.150Z,12.40
2018-03-08T11:45:58.676Z,12.40
2018-03-08T11:48:26.194Z,12.60
2018-03-08T11:50:53.745Z,12.80
2018-03-08T11:53:21.276Z,13.20
2018-03-08T11:55:48.947Z,13.30
2018-03-08T11:58:17.433Z,13.10
2018-03-08T12:00:44.991Z,13.30
2018-03-08T12:03:12.502Z,13.50
2018-03-08T12:05:41.103Z,13.80
2018-03-08T12:08:08.654Z,13.90
2018-03-08T12:10:36.181Z,14.00
2018-03-08T12:13:03.733Z,14.10
2018-03-08T12:15:31.281Z,14.10
2018-03-08T12:17:58.863Z,14.40
2018-03-08T12:20:26.390Z,14.70
2018-03-08T12:22:53.945Z,15.10
2018-03-08T12:25:21.503Z,15.00
2018-03-08T12:27:49.032Z,14.80
2018-03-08T12:30:17.087Z,15.40
2018-03-08T12:32:45.390Z,14.10
2018-03-08T12:35:12.938Z,14.10
2018-03-08T12:37:41.231Z,14.80
2018-03-08T12:40:08.782Z,14.70
2018-03-08T12:42:36.340Z,15.40
2018-03-08T12:45:03.891Z,15.50
2018-03-08T12:47:31.626Z,16.00
2018-03-08T12:49:59.974Z,16.40
2018-03-08T12:52:28.326Z,15.60
2018-03-08T12:54:55.910Z,15.60
2018-03-08T12:57:23.462Z,15.70
2018-03-08T12:59:51.023Z,15.80
2018-03-08T13:02:18.875Z,15.90
2018-03-08T13:04:46.880Z,15.70
2018-03-08T13:07:14.423Z,15.80
2018-03-08T13:09:41.974Z,16.20
2018-03-08T13:12:09.636Z,16.50
2018-03-08T13:14:37.175Z,16.30
2018-03-08T13:17:04.760Z,16.00
2018-03-08T13:19:32.306Z,15.90
2018-03-08T13:21:59.859Z,16.10
2018-03-08T13:24:27.384Z,16.10
2018-03-08T13:26:54.935Z,15.90
2018-03-08T13:29:22.463Z,15.80
2018-03-08T13:31:49.984Z,15.90
2018-03-08T13:34:17.533Z,15.90
2018-03-08T13:36:45.817Z,15.90
2018-03-08T13:39:13.357Z,15.90
2018-03-08T13:41:41.649Z,15.40
2018-03-08T13:44:09.190Z,15.40
2018-03-08T13:46:37.499Z,16.00
2018-03-08T13:49:16.954Z,16.00
2018-03-08T13:51:44.507Z,15.60
2018-03-08T13:54:12.026Z,15.30
2018-03-08T13:56:40.344Z,15.90
2018-03-08T13:59:07.858Z,15.90
2018-03-08T14:01:36.175Z,15.80
2018-03-08T14:04:03.693Z,15.80
2018-03-08T14:06:31.301Z,16.20
2018-03-08T14:08:58.783Z,16.60
2018-03-08T14:11:26.307Z,16.70
2018-03-08T14:13:53.850Z,16.80
2018-03-08T14:16:21.379Z,16.10
2018-03-08T14:18:48.919Z,15.90
2018-03-08T14:21:16.441Z,15.70
2018-03-08T14:23:43.979Z,15.40
2018-03-08T14:26:12.434Z,15.30
2018-03-08T14:28:40.733Z,16.10
2018-03-08T14:31:09.275Z,16.10
2018-03-08T14:33:37.572Z,15.70
2018-03-08T14:36:05.884Z,15.50
2018-03-08T14:38:33.394Z,15.50
2018-03-08T14:41:00.970Z,15.40
2018-03-08T14:43:30.222Z,15.50
2018-03-08T14:45:57.739Z,15.50
2018-03-08T14:48:25.286Z,15.70
2018-03-08T14:50:53.572Z,16.10
2018-03-08T14:53:21.120Z,16.10
2018-03-08T14:55:49.404Z,15.60
2018-03-08T14:58:17.682Z,15.60
2018-03-08T15:00:45.998Z,15.40
2018-03-08T15:03:14.489Z,15.40
2018-03-08T15:05:42.030Z,15.20
2018-03-08T15:08:09.556Z,15.10
2018-03-08T15:10:37.109Z,15.00
2018-03-08T15:13:04.627Z,15.10
2018-03-08T15:15:32.153Z,15.20
2018-03-08T15:18:01.660Z,15.20
2018-03-08T15:20:29.188Z,14.40
2018-03-08T15:22:56.744Z,14.40
2018-03-08T15:25:24.279Z,14.20
2018-03-08T15:27:51.831Z,14.10
2018-03-08T15:30:19.354Z,14.10
2018-03-08T15:32:46.883Z,14.30
2018-03-08T15:35:16.202Z,14.30
2018-03-08T15:37:43.719Z,14.30
2018-03-08T15:40:11.607Z,14.30
2018-03-08T15:42:40.862Z,14.30
2018-03-08T15:45:08.477Z,14.30
2018-03-08T15:47:37.047Z,14.00
2018-03-08T15:50:04.644Z,14.00
2018-03-08T15:52:32.170Z,14.00
2018-03-08T15:55:00.509Z,13.90
2018-03-08T15:57:28.058Z,13.80
2018-03-08T15:59:55.591Z,13.80
2018-03-08T16:02:25.045Z,13.80
2018-03-08T16:04:53.522Z,13.70
2018-03-08T16:07:32.894Z,13.70
2018-03-08T16:12:59.659Z,13.50
2018-03-08T16:15:27.182Z,13.50
2018-03-08T16:17:55.674Z,13.50
2018-03-08T16:20:23.223Z,13.50
2018-03-08T16:22:50.738Z,13.50
2018-03-08T16:25:18.296Z,13.50
2018-03-08T16:27:45.832Z,13.40
2018-03-08T16:30:13.353Z,13.40
2018-03-08T16:32:40.899Z,13.20
2018-03-08T16:35:08.417Z,12.90
2018-03-08T16:37:35.967Z,13.00
2018-03-08T16:40:03.486Z,13.10
2018-03-08T16:42:31.031Z,13.00
2018-03-08T16:44:58.541Z,12.90
2018-03-08T16:47:26.063Z,12.70
2018-03-08T16:49:53.611Z,12.60
2018-03-08T16:52:21.144Z,12.50
2018-03-08T16:54:48.699Z,12.40
2018-03-08T16:57:16.217Z,12.30
2018-03-08T16:59:44.523Z,12.10
2018-03-08T17:02:12.110Z,12.10
2018-03-08T17:04:39.635Z,12.00
2018-03-08T17:07:07.215Z,11.90
2018-03-08T17:09:34.730Z,11.80
2018-03-08T17:12:03.077Z,11.70
2018-03-08T17:14:30.601Z,11.70
2018-03-08T17:16:58.146Z,11.60
2018-03-08T17:19:25.658Z,11.30
2018-03-08T17:21:53.191Z,11.00
2018-03-08T17:24:20.907Z,10.80
2018-03-08T17:26:48.426Z,10.60
2018-03-08T17:29:16.947Z,10.50
2018-03-08T17:31:45.238Z,10.20
2018-03-08T17:34:12.786Z,10.20
2018-03-08T17:36:42.010Z,9.80
2018-03-08T17:39:09.550Z,9.80
2018-03-08T17:41:39.815Z,9.70
2018-03-08T17:44:07.332Z,9.70
2018-03-08T17:46:35.303Z,9.60
2018-03-08T17:49:02.821Z,9.80
2018-03-08T17:51:31.365Z,9.80
2018-03-08T17:53:58.886Z,9.80
2018-03-08T17:56:27.168Z,9.60
2018-03-08T17:58:54.767Z,9.60
2018-03-08T18:01:22.293Z,9.60
2018-03-08T18:03:49.825Z,9.60
2018-03-08T18:06:18.101Z,9.80
2018-03-08T18:08:45.652Z,9.80
2018-03-08T18:11:13.205Z,9.80
2018-03-08T18:13:40.731Z,9.80
2018-03-08T18:16:08.279Z,9.80
2018-03-08T18:18:35.800Z,9.70
2018-03-08T18:21:04.145Z,9.80
2018-03-08T18:23:31.671Z,9.80
2018-03-08T18:26:00.166Z,9.70
2018-03-08T18:28:27.675Z,9.70
2018-03-08T18:30:55.193Z,9.60
2018-03-08T18:33:22.730Z,9.60
2018-03-08T18:35:50.250Z,9.70
2018-03-08T18:38:17.796Z,9.70
2018-03-08T18:40:45.315Z,9.80
2018-03-08T18:43:12.862Z,10.00
2018-03-08T18:45:40.390Z,10.10
2018-03-08T18:48:07.916Z,10.20
2018-03-08T18:50:37.473Z,10.20
2018-03-08T18:53:05.763Z,10.40
2018-03-08T18:55:33.319Z,10.30
2018-03-08T19:01:02.189Z,10.40
2018-03-08T19:03:29.710Z,10.30
2018-03-08T19:05:57.254Z,10.30
2018-03-08T19:08:24.801Z,10.30
2018-03-08T19:10:52.320Z,10.30
2018-03-08T19:13:20.304Z,10.30
2018-03-08T19:15:47.931Z,10.40
2018-03-08T19:18:17.418Z,10.40
2018-03-08T19:20:45.874Z,10.40
2018-03-08T19:23:13.467Z,10.30
2018-03-08T19:25:40.983Z,10.40
2018-03-08T19:28:08.503Z,10.30
2018-03-08T19:30:36.994Z,10.30
2018-03-08T19:33:05.320Z,10.30
2018-03-08T19:35:33.809Z,10.30
2018-03-08T19:38:01.345Z,10.20
2018-03-08T19:40:28.894Z,10.30
2018-03-08T19:42:56.447Z,10.30
2018-03-08T19:45:24.772Z,10.40
2018-03-08T19:47:52.327Z,10.40
2018-03-08T19:50:19.852Z,10.50
2018-03-08T19:52:47.439Z,10.50
2018-03-08T19:55:14.964Z,10.50
2018-03-08T19:57:43.278Z,10.40
2018-03-08T20:00:10.818Z,10.40
2018-03-08T20:02:38.352Z,10.50
2018-03-08T20:05:06.672Z,10.50
2018-03-08T20:07:34.193Z,10.50
2018-03-08T20:10:01.757Z,10.60
2018-03-08T20:12:30.035Z,10.60
2018-03-08T20:14:57.558Z,10.50
2018-03-08T20:17:25.115Z,10.60
2018-03-08T20:19:53.438Z,10.60
2018-03-08T20:22:20.994Z,10.60
2018-03-08T20:24:48.510Z,10.70
2018-03-08T20:27:16.075Z,10.70
2018-03-08T20:29:43.603Z,10.60
2018-03-08T20:32:11.129Z,10.60
2018-03-08T20:34:40.622Z,10.70
2018-03-08T20:37:08.143Z,10.70
2018-03-08T20:39:35.689Z,10.70
2018-03-08T20:42:03.207Z,10.80
2018-03-08T20:44:30.725Z,10.80
2018-03-08T20:46:59.047Z,10.80
2018-03-08T20:49:26.589Z,10.70
2018-03-08T20:51:55.313Z,10.70
2018-03-08T20:54:22.830Z,10.70
2018-03-08T20:56:51.156Z,10.80
2018-03-08T20:59:18.681Z,10.70
2018-03-08T21:01:46.207Z,10.70
2018-03-08T21:04:13.768Z,10.60
2018-03-08T21:06:42.126Z,10.70
2018-03-08T21:09:09.688Z,10.70
2018-03-08T21:11:38.186Z,10.70
2018-03-08T21:14:05.738Z,10.80
2018-03-08T21:16:33.263Z,10.80
2018-03-08T21:19:01.737Z,10.80
2018-03-08T21:21:29.280Z,10.80
2018-03-08T21:23:56.804Z,10.80
2018-03-08T21:26:25.306Z,10.80
2018-03-08T21:28:53.591Z,11.00
2018-03-08T21:31:21.152Z,10.90
2018-03-08T21:33:48.674Z,10.90
2018-03-08T21:36:16.596Z,10.90
2018-03-08T21:38:44.140Z,10.90
2018-03-08T21:41:11.674Z,10.90
2018-03-08T21:43:39.223Z,11.00
2018-03-08T21:46:08.458Z,10.90
2018-03-08T21:48:36.031Z,10.90
2018-03-08T21:51:03.560Z,11.00
2018-03-08T21:53:32.073Z,10.90
2018-03-08T21:55:59.731Z,10.90
2018-03-08T21:58:27.246Z,10.90
2018-03-08T22:00:55.559Z,10.90
2018-03-08T22:03:24.054Z,10.90
2018-03-08T22:05:51.601Z,10.90
2018-03-08T22:08:20.079Z,10.90
2018-03-08T22:10:47.606Z,10.90
2018-03-08T22:13:15.918Z,11.00
2018-03-08T22:15:43.444Z,11.00
2018-03-08T22:18:11.767Z,11.10
2018-03-08T22:20:39.278Z,11.10
2018-03-08T22:23:07.599Z,11.00
2018-03-08T22:25:35.117Z,11.00
2018-03-08T22:28:02.658Z,11.00
2018-03-08T22:30:32.168Z,11.00
2018-03-08T22:33:00.469Z,11.00
2018-03-08T22:35:28.032Z,10.90
2018-03-08T22:37:55.574Z,11.00
2018-03-08T22:40:23.148Z,11.00
2018-03-08T22:42:50.663Z,11.00
2018-03-08T22:45:18.216Z,11.00
2018-03-08T22:47:47.730Z,10.90
2018-03-08T22:50:15.242Z,10.90
2018-03-08T22:52:42.786Z,10.90
2018-03-08T22:55:10.322Z,10.90
2018-03-08T22:57:37.839Z,10.90
2018-03-08T23:00:05.852Z,10.90
2018-03-08T23:02:34.165Z,10.90
2018-03-08T23:05:01.716Z,10.80
2018-03-08T23:07:29.279Z,10.80
2018-03-08T23:09:56.807Z,10.80
2018-03-08T23:12:24.375Z,10.80
2018-03-08T23:14:51.895Z,10.90
2018-03-08T23:17:19.449Z,10.80
2018-03-08T23:19:46.978Z,10.80
2018-03-08T23:22:15.467Z,10.80
2018-03-08T23:24:43.036Z,10.70
2018-03-08T23:27:10.556Z,10.80
2018-03-08T23:29:38.576Z,10.80
2018-03-08T23:32:06.125Z,10.80
2018-03-08T23:34:33.642Z,10.80
2018-03-08T23:37:03.163Z,10.80
2018-03-08T23:39:30.829Z,10.80
2018-03-08T23:41:58.369Z,10.80
2018-03-08T23:44:25.889Z,10.70
2018-03-08T23:46:55.373Z,10.70
2018-03-08T23:49:22.888Z,10.70
2018-03-08T23:51:50.450Z,10.70
2018-03-08T23:54:17.982Z,10.70
2018-03-08T23:56:46.305Z,10.70
2018-03-08T23:59:13.875Z,10.70
